createdAt,value
2023-05-13T00:01:50.408Z,8.85
2023-05-13T00:04:17.214Z,8.35
2023-05-13T00:06:43.709Z,7.95
2023-05-13T00:09:10.277Z,15.75
2023-05-13T00:11:36.785Z,7.63
2023-05-13T00:14:04.010Z,10.02
2023-05-13T00:16:30.784Z,11.95
2023-05-13T00:18:57.814Z,9.85
2023-05-13T00:21:24.420Z,12.18
2023-05-13T00:23:50.857Z,8.68
2023-05-13T00:26:17.447Z,9.07
2023-05-13T00:28:43.970Z,8.80
2023-05-13T00:31:10.639Z,9.85
2023-05-13T00:33:37.570Z,8.20
2023-05-13T00:36:04.382Z,8.85
2023-05-13T00:38:39.859Z,8.40
2023-05-13T00:41:07.049Z,8.50
2023-05-13T00:43:33.626Z,8.25
2023-05-13T00:46:00.414Z,11.02
2023-05-13T00:48:27.014Z,6.30
2023-05-13T00:50:53.675Z,8.23
2023-05-13T00:53:20.224Z,10.35
2023-05-13T00:55:47.178Z,11.90
2023-05-13T00:58:14.346Z,11.20
2023-05-13T01:00:56.264Z,7.45
2023-05-13T01:03:34.984Z,9.95
2023-05-13T01:06:13.904Z,9.68
2023-05-13T01:08:49.809Z,8.32
2023-05-13T01:11:41.322Z,8.75
2023-05-13T01:14:22.527Z,9.38
2023-05-13T01:19:28.645Z,9.25
2023-05-13T01:21:55.688Z,10.43
2023-05-13T01:24:22.964Z,8.90
2023-05-13T01:26:49.571Z,10.02
2023-05-13T01:29:16.520Z,7.70
2023-05-13T01:31:43.776Z,8.20
2023-05-13T01:34:13.166Z,10.05
2023-05-13T01:36:40.074Z,8.25
2023-05-13T01:39:08.574Z,9.27
2023-05-13T01:41:35.376Z,7.57
2023-05-13T01:44:02.006Z,8.13
2023-05-13T01:46:28.575Z,9.20
2023-05-13T01:48:55.096Z,8.07
2023-05-13T01:51:21.685Z,8.15
2023-05-13T01:53:48.189Z,9.63
2023-05-13T01:56:14.870Z,9.93
2023-05-13T01:58:41.695Z,9.15
2023-05-13T02:01:08.166Z,10.57
2023-05-13T02:03:36.669Z,8.45
2023-05-13T02:06:03.330Z,8.70
2023-05-13T02:08:30.922Z,10.32
2023-05-13T02:10:58.651Z,8.48
2023-05-13T02:13:26.427Z,9.85
2023-05-13T02:15:54.440Z,7.85
2023-05-13T02:18:21.131Z,11.43
2023-05-13T02:20:48.188Z,9.32
2023-05-13T02:23:17.758Z,8.93
2023-05-13T02:25:44.459Z,9.73
2023-05-13T02:28:11.090Z,8.63
2023-05-13T02:30:37.624Z,8.13
2023-05-13T02:33:04.151Z,8.20
2023-05-13T02:35:30.881Z,7.85
2023-05-13T02:37:58.044Z,8.98
2023-05-13T02:40:24.593Z,10.82
2023-05-13T02:42:51.156Z,10.15
2023-05-13T02:45:17.996Z,8.68
2023-05-13T02:47:44.542Z,9.05
2023-05-13T02:50:12.472Z,9.07
2023-05-13T02:52:40.312Z,9.32
2023-05-13T02:55:07.767Z,8.02
2023-05-13T02:57:34.371Z,8.85
2023-05-13T03:00:00.896Z,9.43
2023-05-13T03:02:28.515Z,11.18
2023-05-13T03:04:55.576Z,7.53
2023-05-13T03:07:23.807Z,9.77
2023-05-13T03:09:50.542Z,9.02
2023-05-13T03:12:17.523Z,7.65
2023-05-13T03:14:44.554Z,9.20
2023-05-13T03:17:11.418Z,7.95
2023-05-13T03:19:39.026Z,8.15
2023-05-13T03:22:06.130Z,10.45
2023-05-13T03:24:32.864Z,8.75
2023-05-13T03:26:59.484Z,9.00
2023-05-13T03:29:26.054Z,8.32
2023-05-13T03:31:53.210Z,9.60
2023-05-13T03:34:20.066Z,8.25
2023-05-13T03:36:46.535Z,8.00
2023-05-13T03:39:13.035Z,7.35
2023-05-13T03:41:39.565Z,10.40
2023-05-13T03:44:06.171Z,11.43
2023-05-13T03:46:34.132Z,7.90
2023-05-13T03:49:00.695Z,8.70
2023-05-13T03:51:27.462Z,9.38
2023-05-13T03:53:54.030Z,7.10
2023-05-13T03:56:21.615Z,9.25
2023-05-13T03:58:48.372Z,7.43
2023-05-13T04:01:14.976Z,6.43
2023-05-13T04:03:44.198Z,7.93
2023-05-13T04:06:11.037Z,5.75
2023-05-13T04:08:37.720Z,8.05
2023-05-13T04:11:04.264Z,6.13
2023-05-13T04:13:30.971Z,9.15
2023-05-13T04:15:58.065Z,8.43
2023-05-13T04:18:24.631Z,7.68
2023-05-13T04:20:51.123Z,7.70
2023-05-13T04:23:17.735Z,7.68
2023-05-13T04:25:50.664Z,6.32
2023-05-13T04:28:18.029Z,7.72
2023-05-13T04:30:44.747Z,7.38
2023-05-13T04:33:11.653Z,6.28
2023-05-13T04:35:38.278Z,9.65
2023-05-13T04:38:05.709Z,6.82
2023-05-13T04:40:32.242Z,9.30
2023-05-13T04:42:58.744Z,7.60
2023-05-13T04:45:25.345Z,7.68
2023-05-13T04:47:51.921Z,7.53
2023-05-13T04:50:18.603Z,8.68
2023-05-13T04:52:47.240Z,6.65
2023-05-13T04:55:13.946Z,8.27
2023-05-13T04:57:40.509Z,8.90
2023-05-13T05:00:09.441Z,10.25
2023-05-13T05:02:36.052Z,8.40
2023-05-13T05:05:02.624Z,8.07
2023-05-13T05:07:29.356Z,10.18
2023-05-13T05:09:55.837Z,8.43
2023-05-13T05:12:22.645Z,11.05
2023-05-13T05:14:49.395Z,8.90
2023-05-13T05:17:16.116Z,8.77
2023-05-13T05:19:42.616Z,9.77
2023-05-13T05:22:09.116Z,9.90
2023-05-13T05:24:35.712Z,9.05
2023-05-13T05:27:02.304Z,8.95
2023-05-13T05:29:28.846Z,11.98
2023-05-13T05:31:55.756Z,8.05
2023-05-13T05:34:22.602Z,8.30
2023-05-13T05:36:49.095Z,7.65
2023-05-13T05:39:15.655Z,10.43
2023-05-13T05:41:42.898Z,9.27
2023-05-13T05:44:09.787Z,8.25
2023-05-13T05:46:36.258Z,9.00
2023-05-13T05:49:03.609Z,11.93
2023-05-13T05:51:30.870Z,9.50
2023-05-13T05:53:57.681Z,8.82
2023-05-13T05:56:24.170Z,7.97
2023-05-13T05:58:50.681Z,8.35
2023-05-13T06:01:17.154Z,10.85
2023-05-13T06:03:43.852Z,9.85
2023-05-13T06:06:10.510Z,8.52
2023-05-13T06:08:37.020Z,7.70
2023-05-13T06:11:03.593Z,7.28
2023-05-13T06:13:30.317Z,9.57
2023-05-13T06:15:57.386Z,7.63
2023-05-13T06:18:24.101Z,8.35
2023-05-13T06:20:50.786Z,8.15
2023-05-13T06:23:17.574Z,8.25
2023-05-13T06:25:44.059Z,8.95
2023-05-13T06:28:12.048Z,8.18
2023-05-13T06:30:38.724Z,6.28
2023-05-13T06:33:05.484Z,7.03
2023-05-13T06:35:32.145Z,7.15
2023-05-13T06:37:58.893Z,7.40
2023-05-13T06:40:25.446Z,7.97
2023-05-13T06:42:51.895Z,7.95
2023-05-13T06:45:23.435Z,5.47
2023-05-13T06:47:53.832Z,6.45
2023-05-13T06:50:20.971Z,6.50
2023-05-13T06:52:47.795Z,5.57
2023-05-13T06:55:14.910Z,6.50
2023-05-13T06:57:43.803Z,5.88
2023-05-13T07:00:11.001Z,7.70
2023-05-13T07:02:37.765Z,5.68
2023-05-13T07:05:05.042Z,4.90
2023-05-13T07:07:31.875Z,5.47
2023-05-13T07:09:58.803Z,6.00
2023-05-13T07:12:26.218Z,5.03
2023-05-13T07:14:54.237Z,6.05
2023-05-13T07:17:20.817Z,4.78
2023-05-13T07:19:47.592Z,4.85
2023-05-13T07:22:14.158Z,3.53
2023-05-13T07:24:43.120Z,4.80
2023-05-13T07:27:09.751Z,3.80
2023-05-13T07:29:36.234Z,4.35
2023-05-13T07:32:06.293Z,6.38
2023-05-13T07:34:33.074Z,4.40
2023-05-13T07:36:59.749Z,5.00
2023-05-13T07:39:27.830Z,3.47
2023-05-13T07:41:54.980Z,4.25
2023-05-13T07:44:21.952Z,4.40
2023-05-13T07:46:49.713Z,5.53
2023-05-13T07:49:16.302Z,4.88
2023-05-13T07:51:42.907Z,4.40
2023-05-13T07:54:10.009Z,5.03
2023-05-13T07:56:38.040Z,3.58
2023-05-13T07:59:04.865Z,3.92
2023-05-13T08:01:31.512Z,4.95
2023-05-13T08:03:58.209Z,4.93
2023-05-13T08:06:25.002Z,3.63
2023-05-13T08:08:51.643Z,3.38
2023-05-13T08:11:18.144Z,3.65
2023-05-13T08:13:44.702Z,4.63
2023-05-13T08:16:11.487Z,4.68
2023-05-13T08:18:38.091Z,4.65
2023-05-13T08:21:04.935Z,4.18
2023-05-13T08:23:43.898Z,4.28
2023-05-13T08:26:12.290Z,5.00
2023-05-13T08:28:38.783Z,5.22
2023-05-13T08:31:09.409Z,4.18
2023-05-13T08:33:36.210Z,4.35
2023-05-13T08:36:06.274Z,3.90
2023-05-13T08:38:33.587Z,4.05
2023-05-13T08:41:00.619Z,3.53
2023-05-13T08:43:28.120Z,5.57
2023-05-13T08:45:56.698Z,5.65
2023-05-13T08:48:24.685Z,3.75
2023-05-13T08:50:52.181Z,4.40
2023-05-13T08:53:21.661Z,3.97
2023-05-13T08:55:48.534Z,4.60
2023-05-13T08:58:15.041Z,6.47
2023-05-13T09:00:41.972Z,4.10
2023-05-13T09:03:08.697Z,5.30
2023-05-13T09:05:38.796Z,4.70
2023-05-13T09:08:09.756Z,3.90
2023-05-13T09:10:37.089Z,4.07
2023-05-13T09:13:04.037Z,4.30
2023-05-13T09:15:31.309Z,5.28
2023-05-13T09:18:06.152Z,4.05
2023-05-13T09:20:35.586Z,6.60
2023-05-13T09:23:11.961Z,4.80
2023-05-13T09:25:39.189Z,5.47
2023-05-13T09:28:07.725Z,4.20
2023-05-13T09:30:36.633Z,6.15
2023-05-13T09:33:11.961Z,5.50
2023-05-13T09:35:58.850Z,4.65
2023-05-13T09:38:32.131Z,3.80
2023-05-13T09:41:00.314Z,2.90
2023-05-13T09:43:34.675Z,3.95
2023-05-13T09:46:03.397Z,3.80
2023-05-13T09:48:32.637Z,2.90
2023-05-13T09:50:59.410Z,3.28
2023-05-13T09:53:27.109Z,4.30
2023-05-13T09:56:00.044Z,5.22
2023-05-13T09:58:31.068Z,4.85
2023-05-13T10:00:58.533Z,4.75
2023-05-13T10:03:27.119Z,5.38
2023-05-13T10:05:53.797Z,3.35
2023-05-13T10:08:22.312Z,5.80
2023-05-13T10:10:50.863Z,6.78
2023-05-13T10:13:22.735Z,3.95
2023-05-13T10:15:51.826Z,3.75
2023-05-13T10:18:19.814Z,6.07
2023-05-13T10:20:47.592Z,4.32
2023-05-13T10:23:14.202Z,4.63
2023-05-13T10:25:42.742Z,4.57
2023-05-13T10:28:10.682Z,5.90
2023-05-13T10:30:38.479Z,4.78
2023-05-13T10:33:05.227Z,7.53
2023-05-13T10:35:37.503Z,3.83
2023-05-13T10:38:21.817Z,6.10
2023-05-13T10:41:18.799Z,3.92
2023-05-13T10:43:46.459Z,4.18
2023-05-13T10:46:13.951Z,4.95
2023-05-13T10:48:48.684Z,5.07
2023-05-13T10:51:18.318Z,5.13
2023-05-13T10:53:55.755Z,4.20
2023-05-13T10:56:27.886Z,4.13
2023-05-13T10:59:02.781Z,4.10
2023-05-13T11:01:30.244Z,4.82
2023-05-13T11:04:00.068Z,4.35
2023-05-13T11:06:37.464Z,3.65
2023-05-13T11:09:28.905Z,3.10
2023-05-13T11:11:59.781Z,4.60
2023-05-13T11:14:27.715Z,5.45
2023-05-13T11:17:08.025Z,4.70
2023-05-13T11:19:45.328Z,6.38
2023-05-13T11:22:19.016Z,6.15
2023-05-13T11:24:47.701Z,5.13
2023-05-13T11:27:20.143Z,4.95
2023-05-13T11:29:52.219Z,4.18
2023-05-13T11:32:53.497Z,4.40
2023-05-13T11:35:21.797Z,3.42
2023-05-13T11:37:51.643Z,4.25
2023-05-13T11:40:28.329Z,4.03
2023-05-13T11:42:55.403Z,4.00
2023-05-13T11:45:26.394Z,4.47
2023-05-13T11:47:54.122Z,5.88
2023-05-13T11:50:22.678Z,4.95
2023-05-13T11:55:30.003Z,5.38
2023-05-13T11:57:57.171Z,4.82
2023-05-13T12:00:27.658Z,4.30
2023-05-13T12:02:54.953Z,4.93
2023-05-13T12:05:22.675Z,3.90
2023-05-13T12:07:49.552Z,4.32
2023-05-13T12:10:16.489Z,5.82
2023-05-13T12:12:45.508Z,4.30
2023-05-13T12:15:15.703Z,4.93
2023-05-13T12:17:42.714Z,3.35
2023-05-13T12:20:15.292Z,6.22
2023-05-13T12:22:44.890Z,3.72
2023-05-13T12:25:44.917Z,3.58
2023-05-13T12:28:21.236Z,4.90
2023-05-13T12:31:02.227Z,3.35
2023-05-13T12:33:30.928Z,4.78
2023-05-13T12:36:16.222Z,3.85
2023-05-13T12:39:01.223Z,3.00
2023-05-13T12:41:30.329Z,3.88
2023-05-13T12:44:04.276Z,3.90
2023-05-13T12:46:31.942Z,4.43
2023-05-13T12:49:00.659Z,4.47
2023-05-13T12:51:28.516Z,3.75
2023-05-13T12:53:56.233Z,3.72
2023-05-13T12:56:24.220Z,3.70
2023-05-13T12:58:52.613Z,4.10
2023-05-13T13:06:13.530Z,5.70
2023-05-13T13:08:40.641Z,4.53
2023-05-13T13:11:07.281Z,2.70
2023-05-13T13:13:33.810Z,4.68
2023-05-13T13:16:01.018Z,3.83
2023-05-13T13:18:27.976Z,4.38
2023-05-13T13:20:54.897Z,5.00
2023-05-13T13:23:21.443Z,4.35
2023-05-13T13:25:48.253Z,5.53
2023-05-13T13:28:15.195Z,3.88
2023-05-13T13:30:46.548Z,6.43
2023-05-13T13:33:15.116Z,4.55
2023-05-13T13:35:43.821Z,5.05
2023-05-13T13:38:10.507Z,3.05
2023-05-13T13:40:37.141Z,4.15
2023-05-13T13:43:04.447Z,3.30
2023-05-13T13:45:31.387Z,4.68
2023-05-13T13:47:59.260Z,4.03
2023-05-13T13:50:26.472Z,3.25
2023-05-13T13:52:53.306Z,4.53
2023-05-13T13:55:21.738Z,4.72
2023-05-13T13:57:48.674Z,3.67
2023-05-13T14:00:16.949Z,4.05
2023-05-13T14:02:44.310Z,4.10
2023-05-13T14:05:12.519Z,3.10
2023-05-13T14:07:39.686Z,4.93
2023-05-13T14:10:07.188Z,4.55
2023-05-13T14:12:35.758Z,3.80
2023-05-13T14:15:02.504Z,3.92
2023-05-13T14:17:29.154Z,3.67
2023-05-13T14:19:58.810Z,3.95
2023-05-13T14:22:25.332Z,4.35
2023-05-13T14:24:52.710Z,4.28
2023-05-13T14:27:21.085Z,4.47
2023-05-13T14:29:51.630Z,6.03
2023-05-13T14:32:18.351Z,3.47
2023-05-13T14:34:44.926Z,6.05
2023-05-13T14:37:11.763Z,4.10
2023-05-13T14:39:40.985Z,3.92
2023-05-13T14:42:10.860Z,3.70
2023-05-13T14:44:37.407Z,4.05
2023-05-13T14:47:04.107Z,3.33
2023-05-13T14:49:33.378Z,6.30
2023-05-13T14:52:00.105Z,5.85
2023-05-13T14:54:26.807Z,4.13
2023-05-13T14:56:53.591Z,4.53
2023-05-13T14:59:20.467Z,3.58
2023-05-13T15:01:46.970Z,4.25
2023-05-13T15:04:14.482Z,4.38
2023-05-13T15:06:41.052Z,3.33
2023-05-13T15:09:07.519Z,4.00
2023-05-13T15:11:33.993Z,4.50
2023-05-13T15:14:01.805Z,4.45
2023-05-13T15:16:28.683Z,3.88
2023-05-13T15:18:55.356Z,3.63
2023-05-13T15:21:21.909Z,3.45
2023-05-13T15:23:48.869Z,2.88
2023-05-13T15:26:15.608Z,3.83
2023-05-13T15:28:42.377Z,3.13
2023-05-13T15:31:08.970Z,3.20
2023-05-13T15:33:35.791Z,2.67
2023-05-13T15:36:02.545Z,3.67
2023-05-13T15:38:38.912Z,3.00
2023-05-13T15:41:05.417Z,4.25
2023-05-13T15:43:32.120Z,4.20
2023-05-13T15:45:59.196Z,3.97
2023-05-13T15:48:26.515Z,5.28
2023-05-13T15:50:54.097Z,3.55
2023-05-13T15:53:20.840Z,3.08
2023-05-13T15:55:47.464Z,4.32
2023-05-13T15:58:15.541Z,3.78
2023-05-13T16:00:42.210Z,2.60
2023-05-13T16:03:08.731Z,3.08
2023-05-13T16:05:36.376Z,3.33
2023-05-13T16:08:02.855Z,3.78
2023-05-13T16:10:30.392Z,2.97
2023-05-13T16:12:56.903Z,3.00
2023-05-13T16:15:23.797Z,3.25
2023-05-13T16:17:50.580Z,3.28
2023-05-13T16:20:17.140Z,3.70
2023-05-13T16:22:44.055Z,2.45
2023-05-13T16:25:11.930Z,2.47
2023-05-13T16:27:40.119Z,2.47
2023-05-13T16:30:08.042Z,2.97
2023-05-13T16:32:37.873Z,2.88
2023-05-13T16:35:05.961Z,3.60
2023-05-13T16:37:35.361Z,4.43
2023-05-13T16:40:02.123Z,2.05
2023-05-13T16:42:28.631Z,2.97
2023-05-13T16:44:55.388Z,2.65
2023-05-13T16:47:21.996Z,3.15
2023-05-13T16:49:50.069Z,2.20
2023-05-13T16:52:16.731Z,2.35
2023-05-13T16:54:43.392Z,2.60
2023-05-13T16:57:10.239Z,2.47
2023-05-13T16:59:36.826Z,2.40
2023-05-13T17:02:03.638Z,3.78
2023-05-13T17:04:30.421Z,2.00
2023-05-13T17:06:59.044Z,1.77
2023-05-13T17:09:25.959Z,1.75
2023-05-13T17:11:54.441Z,1.67
2023-05-13T17:14:22.015Z,2.47
2023-05-13T17:16:48.904Z,2.53
2023-05-13T17:19:16.058Z,1.80
2023-05-13T17:21:44.084Z,2.05
2023-05-13T17:24:10.911Z,2.70
2023-05-13T17:26:38.997Z,2.33
2023-05-13T17:29:06.160Z,1.92
2023-05-13T17:31:33.247Z,3.20
2023-05-13T17:33:59.844Z,2.70
2023-05-13T17:36:26.406Z,5.95
2023-05-13T17:38:53.173Z,3.15
2023-05-13T17:41:19.774Z,3.15
2023-05-13T17:43:46.417Z,3.35
2023-05-13T17:46:13.286Z,3.00
2023-05-13T17:48:40.103Z,2.17
2023-05-13T17:51:06.842Z,2.50
2023-05-13T17:53:34.904Z,2.38
2023-05-13T17:56:01.928Z,3.72
2023-05-13T17:58:28.841Z,1.90
2023-05-13T18:00:55.570Z,2.22
2023-05-13T18:03:22.479Z,2.63
2023-05-13T18:05:49.444Z,2.10
2023-05-13T18:08:16.064Z,1.95
2023-05-13T18:10:42.720Z,2.15
2023-05-13T18:13:09.301Z,1.63
2023-05-13T18:15:35.890Z,2.88
2023-05-13T18:18:03.791Z,2.35
2023-05-13T18:20:34.097Z,2.25
2023-05-13T18:23:03.366Z,2.45
2023-05-13T18:25:31.440Z,2.33
2023-05-13T18:27:58.251Z,2.33
2023-05-13T18:30:25.051Z,2.50
2023-05-13T18:32:51.778Z,1.83
2023-05-13T18:35:21.289Z,2.00
2023-05-13T18:37:48.215Z,2.38
2023-05-13T18:40:14.711Z,3.05
2023-05-13T18:42:41.488Z,2.17
2023-05-13T18:45:08.502Z,2.25
2023-05-13T18:47:35.084Z,2.30
2023-05-13T18:50:02.058Z,2.00
2023-05-13T18:52:28.550Z,2.53
2023-05-13T18:54:55.080Z,2.30
2023-05-13T18:57:21.684Z,2.60
2023-05-13T18:59:48.254Z,2.35
2023-05-13T19:02:14.946Z,2.75
2023-05-13T19:04:41.944Z,3.05
2023-05-13T19:07:08.578Z,3.72
2023-05-13T19:09:36.293Z,2.92
2023-05-13T19:12:03.133Z,4.07
2023-05-13T19:14:29.756Z,4.45
2023-05-13T19:16:56.398Z,2.50
2023-05-13T19:19:24.512Z,3.17
2023-05-13T19:21:51.075Z,3.40
2023-05-13T19:24:17.610Z,3.63
2023-05-13T19:26:44.143Z,3.53
2023-05-13T19:29:10.939Z,3.72
2023-05-13T19:31:37.554Z,3.58
2023-05-13T19:34:04.518Z,3.28
2023-05-13T19:36:31.064Z,2.92
2023-05-13T19:38:57.673Z,3.90
2023-05-13T19:41:24.365Z,3.40
2023-05-13T19:43:50.850Z,4.38
2023-05-13T19:46:17.499Z,3.38
2023-05-13T19:48:44.095Z,4.40
2023-05-13T19:51:10.555Z,4.45
2023-05-13T19:53:37.566Z,3.42
2023-05-13T19:56:04.983Z,3.38
2023-05-13T19:58:31.896Z,3.67
2023-05-13T20:00:58.490Z,4.50
2023-05-13T20:03:25.162Z,4.15
2023-05-13T20:05:53.137Z,4.25
2023-05-13T20:08:20.974Z,3.72
2023-05-13T20:10:47.571Z,4.28
2023-05-13T20:13:14.231Z,5.13
2023-05-13T20:15:42.652Z,3.47
2023-05-13T20:18:09.271Z,5.88
2023-05-13T20:20:36.269Z,3.83
2023-05-13T20:23:02.762Z,4.57
2023-05-13T20:25:29.271Z,4.38
2023-05-13T20:27:55.768Z,4.32
2023-05-13T20:30:22.750Z,4.78
2023-05-13T20:32:49.405Z,5.15
2023-05-13T20:35:16.119Z,4.93
2023-05-13T20:37:42.923Z,4.13
2023-05-13T20:40:09.892Z,4.45
2023-05-13T20:42:36.673Z,7.20
2023-05-13T20:45:04.557Z,4.15
2023-05-13T20:47:31.313Z,4.53
2023-05-13T20:49:58.178Z,5.55
2023-05-13T20:52:25.051Z,5.20
2023-05-13T20:54:51.709Z,4.80
2023-05-13T20:57:18.177Z,4.45
2023-05-13T20:59:44.662Z,4.47
2023-05-13T21:02:11.209Z,4.30
2023-05-13T21:04:37.838Z,5.63
2023-05-13T21:07:06.972Z,3.75
2023-05-13T21:09:33.576Z,3.78
2023-05-13T21:12:00.220Z,4.85
2023-05-13T21:14:26.811Z,3.97
2023-05-13T21:16:53.589Z,4.20
2023-05-13T21:19:22.242Z,3.63
2023-05-13T21:24:19.316Z,3.83
2023-05-13T21:26:46.718Z,3.55
2023-05-13T21:29:13.236Z,3.78
2023-05-13T21:31:39.755Z,4.22
2023-05-13T21:34:06.426Z,3.90
2023-05-13T21:36:34.108Z,4.85
2023-05-13T21:39:00.940Z,4.20
2023-05-13T21:41:27.384Z,3.72
2023-05-13T21:43:54.128Z,3.92
2023-05-13T21:46:20.648Z,4.05
2023-05-13T21:48:47.710Z,3.80
2023-05-13T21:51:14.212Z,4.30
2023-05-13T21:53:40.837Z,4.68
2023-05-13T21:56:07.601Z,4.00
2023-05-13T21:58:34.185Z,3.60
2023-05-13T22:01:01.285Z,5.95
2023-05-13T22:03:27.907Z,4.85
2023-05-13T22:05:54.401Z,4.45
2023-05-13T22:08:21.198Z,3.45
2023-05-13T22:10:47.863Z,5.53
2023-05-13T22:13:14.448Z,4.82
2023-05-13T22:15:41.307Z,3.92
2023-05-13T22:18:08.174Z,4.70
2023-05-13T22:20:34.745Z,4.72
2023-05-13T22:23:01.322Z,3.78
2023-05-13T22:25:27.820Z,4.88
2023-05-13T22:27:54.564Z,5.30
2023-05-13T22:30:21.447Z,4.68
2023-05-13T22:32:48.350Z,6.63
2023-05-13T22:35:14.869Z,4.35
2023-05-13T22:37:41.460Z,4.53
2023-05-13T22:40:10.499Z,5.05
2023-05-13T22:42:37.161Z,4.50
2023-05-13T22:45:04.581Z,5.18
2023-05-13T22:47:31.167Z,5.00
2023-05-13T22:49:57.811Z,4.60
2023-05-13T22:52:24.390Z,4.65
2023-05-13T22:54:51.124Z,5.03
2023-05-13T22:57:17.591Z,5.63
2023-05-13T22:59:44.126Z,5.13
2023-05-13T23:02:10.982Z,5.38
2023-05-13T23:04:37.716Z,5.05
2023-05-13T23:07:04.463Z,5.13
2023-05-13T23:09:31.206Z,6.43
2023-05-13T23:11:57.933Z,6.55
2023-05-13T23:14:27.847Z,5.95
2023-05-13T23:16:54.874Z,5.20
2023-05-13T23:19:21.795Z,5.05
2023-05-13T23:21:48.275Z,7.35
2023-05-13T23:24:14.740Z,6.32
2023-05-13T23:26:43.866Z,5.85
2023-05-13T23:29:11.278Z,7.03
2023-05-13T23:31:40.478Z,6.53
2023-05-13T23:34:08.171Z,5.72
2023-05-13T23:36:35.250Z,4.97
2023-05-13T23:39:01.954Z,5.72
2023-05-13T23:41:28.698Z,5.78
2023-05-13T23:43:55.480Z,5.45
2023-05-13T23:46:22.216Z,5.90
2023-05-13T23:48:48.859Z,5.78
2023-05-13T23:51:15.325Z,5.82
2023-05-13T23:53:41.777Z,5.32
2023-05-13T23:56:08.260Z,7.47
2023-05-13T23:58:34.809Z,5.43
